createdAt,value
2016-08-14T00:00:49.923Z,20.91
2016-08-14T00:01:49.911Z,20.9
2016-08-14T00:02:49.176Z,20.9
2016-08-14T00:03:49.164Z,20.79
2016-08-14T00:04:49.134Z,20.87
2016-08-14T00:05:49.128Z,20.88
2016-08-14T00:06:49.820Z,20.88
2016-08-14T00:07:49.798Z,20.94
2016-08-14T00:08:49.776Z,20.91
2016-08-14T00:09:49.064Z,20.85
2016-08-14T00:10:49.745Z,20.88
2016-08-14T00:11:49.741Z,20.88
2016-08-14T00:12:49.011Z,20.91
2016-08-14T00:13:49.709Z,20.83
2016-08-14T00:14:49.680Z,20.91
2016-08-14T00:15:49.677Z,20.93
2016-08-14T00:16:49.705Z,20.87
2016-08-14T00:17:49.639Z,20.93
2016-08-14T00:18:49.621Z,20.91
2016-08-14T00:19:49.605Z,20.94
2016-08-14T00:20:49.589Z,20.9
2016-08-14T00:21:49.572Z,20.87
2016-08-14T00:22:48.850Z,20.85
2016-08-14T00:23:49.530Z,20.91
2016-08-14T00:24:49.525Z,20.82
2016-08-14T00:25:49.503Z,20.85
2016-08-14T00:26:48.810Z,20.83
2016-08-14T00:27:49.470Z,20.9
2016-08-14T00:28:48.743Z,20.87
2016-08-14T00:29:48.724Z,20.91
2016-08-14T00:30:48.742Z,20.91
2016-08-14T00:31:49.406Z,20.97
2016-08-14T00:32:49.380Z,20.9
2016-08-14T00:33:49.368Z,20.94
2016-08-14T00:34:49.348Z,20.96
2016-08-14T00:35:48.634Z,20.94
2016-08-14T00:36:48.610Z,20.91
2016-08-14T00:37:49.300Z,20.94
2016-08-14T00:38:48.585Z,20.91
2016-08-14T00:39:49.278Z,20.9
2016-08-14T00:40:49.259Z,20.88
2016-08-14T00:41:49.227Z,20.93
2016-08-14T00:42:48.512Z,20.98
2016-08-14T00:43:48.501Z,20.96
2016-08-14T00:44:48.477Z,20.96
2016-08-14T00:45:48.461Z,20.93
2016-08-14T00:46:49.156Z,20.96
2016-08-14T00:47:49.139Z,20.85
2016-08-14T00:48:49.122Z,20.85
2016-08-14T00:49:49.100Z,21.01
2016-08-14T00:50:49.080Z,20.94
2016-08-14T00:51:49.092Z,20.87
2016-08-14T00:52:48.346Z,20.96
2016-08-14T00:53:48.321Z,20.9
2016-08-14T00:54:49.028Z,20.93
2016-08-14T00:55:48.299Z,20.97
2016-08-14T00:56:48.990Z,20.91
2016-08-14T00:57:48.256Z,20.96
2016-08-14T00:58:48.258Z,20.83
2016-08-14T00:59:48.229Z,20.97
2016-08-14T01:00:48.235Z,20.9
2016-08-14T01:01:48.194Z,20.94
2016-08-14T01:02:48.893Z,21
2016-08-14T01:03:48.164Z,20.97
2016-08-14T01:04:48.851Z,21.05
2016-08-14T01:05:48.122Z,20.87
2016-08-14T01:06:48.105Z,20.91
2016-08-14T01:07:48.097Z,20.94
2016-08-14T01:08:48.790Z,20.87
2016-08-14T01:09:48.767Z,20.94
2016-08-14T01:10:48.756Z,20.97
2016-08-14T01:11:48.030Z,20.9
2016-08-14T01:12:48.017Z,21
2016-08-14T01:13:48.704Z,20.91
2016-08-14T01:14:47.991Z,21.03
2016-08-14T01:15:48.670Z,20.96
2016-08-14T01:16:48.653Z,20.96
2016-08-14T01:17:47.928Z,20.98
2016-08-14T01:18:48.625Z,20.91
2016-08-14T01:19:48.604Z,20.93
2016-08-14T01:20:47.874Z,20.9
2016-08-14T01:21:47.878Z,20.91
2016-08-14T01:22:47.840Z,20.93
2016-08-14T01:23:47.837Z,20.94
2016-08-14T01:24:48.524Z,20.97
2016-08-14T01:25:48.505Z,20.96
2016-08-14T01:26:48.488Z,21
2016-08-14T01:27:48.490Z,20.96
2016-08-14T01:28:48.456Z,20.94
2016-08-14T01:29:48.436Z,20.97
2016-08-14T01:30:47.711Z,20.96
2016-08-14T01:31:48.404Z,20.97
2016-08-14T01:32:48.388Z,20.97
2016-08-14T01:33:48.370Z,21.01
2016-08-14T01:34:48.353Z,21.01
2016-08-14T01:35:47.629Z,21.01
2016-08-14T01:36:46.907Z,20.85
2016-08-14T01:37:47.599Z,20.96
2016-08-14T01:38:47.581Z,20.85
2016-08-14T01:39:47.582Z,20.9
2016-08-14T01:40:48.258Z,21
2016-08-14T01:41:48.240Z,20.83
2016-08-14T01:42:48.215Z,20.94
2016-08-14T01:43:48.209Z,20.93
2016-08-14T01:44:48.183Z,20.98
2016-08-14T01:45:46.755Z,20.93
2016-08-14T01:46:48.156Z,20.91
2016-08-14T01:47:48.145Z,20.91
2016-08-14T01:48:48.126Z,20.94
2016-08-14T01:49:48.115Z,20.93
2016-08-14T01:50:47.379Z,20.98
2016-08-14T01:51:47.365Z,20.94
2016-08-14T01:52:47.366Z,20.94
2016-08-14T01:53:47.329Z,21.03
2016-08-14T01:54:47.318Z,21
2016-08-14T01:55:48.010Z,21.05
2016-08-14T01:56:47.275Z,20.97
2016-08-14T01:57:47.974Z,21
2016-08-14T01:58:47.251Z,20.98
2016-08-14T01:59:47.228Z,20.98
2016-08-14T02:00:47.930Z,21.05
2016-08-14T02:01:47.201Z,20.97
2016-08-14T02:02:47.893Z,20.94
2016-08-14T02:03:47.873Z,21.08
2016-08-14T02:04:47.873Z,21.13
2016-08-14T02:05:47.843Z,21.13
2016-08-14T02:06:47.825Z,21.11
2016-08-14T02:07:47.097Z,21.13
2016-08-14T02:08:47.790Z,21.24
2016-08-14T02:09:47.774Z,21.18
2016-08-14T02:10:47.760Z,21.22
2016-08-14T02:11:47.036Z,21.21
2016-08-14T02:12:47.730Z,21.24
2016-08-14T02:13:47.710Z,21.21
2016-08-14T02:14:47.695Z,21.21
2016-08-14T02:15:47.686Z,21.26
2016-08-14T02:16:46.951Z,21.22
2016-08-14T02:17:46.934Z,21.27
2016-08-14T02:18:47.626Z,21.22
2016-08-14T02:19:46.896Z,21.21
2016-08-14T02:20:47.594Z,21.27
2016-08-14T02:21:47.583Z,21.28
2016-08-14T02:22:47.559Z,21.21
2016-08-14T02:23:46.833Z,21.21
2016-08-14T02:24:47.524Z,21.28
2016-08-14T02:25:47.507Z,21.21
2016-08-14T02:26:47.501Z,21.33
2016-08-14T02:27:47.481Z,21.3
2016-08-14T02:28:47.468Z,21.22
2016-08-14T02:29:47.443Z,21.28
2016-08-14T02:30:47.430Z,21.3
2016-08-14T02:31:47.434Z,21.3
2016-08-14T02:32:47.402Z,21.3
2016-08-14T02:33:47.372Z,21.26
2016-08-14T02:34:47.368Z,21.33
2016-08-14T02:35:47.345Z,21.24
2016-08-14T02:36:47.323Z,21.26
2016-08-14T02:37:47.314Z,21.27
2016-08-14T02:38:46.590Z,21.28
2016-08-14T02:39:47.273Z,21.27
2016-08-14T02:40:47.271Z,21.31
2016-08-14T02:41:47.255Z,21.26
2016-08-14T02:42:47.230Z,21.27
2016-08-14T02:43:47.213Z,21.33
2016-08-14T02:44:47.199Z,21.24
2016-08-14T02:45:47.181Z,21.34
2016-08-14T02:46:47.163Z,21.37
2016-08-14T02:47:47.141Z,21.28
2016-08-14T02:48:47.135Z,21.31
2016-08-14T02:49:46.403Z,21.33
2016-08-14T02:50:47.107Z,21.31
2016-08-14T02:51:47.093Z,21.33
2016-08-14T02:52:47.066Z,21.37
2016-08-14T02:53:47.052Z,21.33
2016-08-14T02:54:47.042Z,21.38
2016-08-14T02:55:47.015Z,21.36
2016-08-14T02:56:47.015Z,21.4
2016-08-14T02:57:47.033Z,21.4
2016-08-14T02:58:46.966Z,21.42
2016-08-14T02:59:46.239Z,21.37
2016-08-14T03:00:46.934Z,21.37
2016-08-14T03:01:46.916Z,21.43
2016-08-14T03:02:46.898Z,21.34
2016-08-14T03:03:46.185Z,21.43
2016-08-14T03:04:46.872Z,21.45
2016-08-14T03:05:46.851Z,21.4
2016-08-14T03:06:46.134Z,21.48
2016-08-14T03:07:46.117Z,21.43
2016-08-14T03:08:46.806Z,21.38
2016-08-14T03:09:46.786Z,21.37
2016-08-14T03:10:46.774Z,21.46
2016-08-14T03:11:46.759Z,21.38
2016-08-14T03:12:46.026Z,21.37
2016-08-14T03:13:46.724Z,21.34
2016-08-14T03:14:46.709Z,21.43
2016-08-14T03:15:46.696Z,21.43
2016-08-14T03:16:46.686Z,21.42
2016-08-14T03:17:46.662Z,21.46
2016-08-14T03:18:46.643Z,21.42
2016-08-14T03:19:46.624Z,21.53
2016-08-14T03:20:46.598Z,21.51
2016-08-14T03:21:46.591Z,21.53
2016-08-14T03:22:46.575Z,21.46
2016-08-14T03:23:46.560Z,21.52
2016-08-14T03:24:46.537Z,21.52
2016-08-14T03:25:46.525Z,21.48
2016-08-14T03:26:46.504Z,21.46
2016-08-14T03:27:46.496Z,21.55
2016-08-14T03:28:46.475Z,21.51
2016-08-14T03:29:46.462Z,21.51
2016-08-14T03:30:46.449Z,21.48
2016-08-14T03:31:46.430Z,21.49
2016-08-14T03:32:46.423Z,21.49
2016-08-14T03:33:46.397Z,21.48
2016-08-14T03:34:46.374Z,21.51
2016-08-14T03:35:46.359Z,21.49
2016-08-14T03:36:46.345Z,21.46
2016-08-14T03:37:46.339Z,21.48
2016-08-14T03:38:46.310Z,21.38
2016-08-14T03:39:46.296Z,21.55
2016-08-14T03:40:46.285Z,21.49
2016-08-14T03:41:46.264Z,21.48
2016-08-14T03:42:46.247Z,21.51
2016-08-14T03:43:46.227Z,21.51
2016-08-14T03:44:45.507Z,21.52
2016-08-14T03:45:46.195Z,21.48
2016-08-14T03:46:45.469Z,21.53
2016-08-14T03:47:45.457Z,21.52
2016-08-14T03:48:46.152Z,21.48
2016-08-14T03:49:46.127Z,21.55
2016-08-14T03:50:45.409Z,21.52
2016-08-14T03:51:46.101Z,21.49
2016-08-14T03:52:46.085Z,21.53
2016-08-14T03:53:46.058Z,21.52
2016-08-14T03:54:46.057Z,21.52
2016-08-14T03:55:46.039Z,21.52
2016-08-14T03:56:46.012Z,21.51
2016-08-14T03:57:46.001Z,21.58
2016-08-14T03:58:45.275Z,21.49
2016-08-14T03:59:45.972Z,21.46
2016-08-14T04:00:45.952Z,21.52
2016-08-14T04:01:45.942Z,21.53
2016-08-14T04:02:45.920Z,21.49
2016-08-14T04:03:45.902Z,21.49
2016-08-14T04:04:45.886Z,21.48
2016-08-14T04:05:45.879Z,21.51
2016-08-14T04:06:45.859Z,21.48
2016-08-14T04:07:45.842Z,21.49
2016-08-14T04:08:45.124Z,21.51
2016-08-14T04:09:45.801Z,21.52
2016-08-14T04:10:45.786Z,21.49
2016-08-14T04:11:45.795Z,21.53
2016-08-14T04:12:45.043Z,21.55
2016-08-14T04:13:45.735Z,21.52
2016-08-14T04:14:45.726Z,21.56
2016-08-14T04:15:45.709Z,21.51
2016-08-14T04:16:44.976Z,21.52
2016-08-14T04:17:45.672Z,21.52
2016-08-14T04:18:45.661Z,21.51
2016-08-14T04:19:45.660Z,21.52
2016-08-14T04:20:45.639Z,21.52
2016-08-14T04:21:44.906Z,21.52
2016-08-14T04:22:45.590Z,21.53
2016-08-14T04:23:44.865Z,21.53
2016-08-14T04:24:45.580Z,21.52
2016-08-14T04:25:45.543Z,21.55
2016-08-14T04:26:45.526Z,21.51
2016-08-14T04:27:44.801Z,21.49
2016-08-14T04:28:45.489Z,21.48
2016-08-14T04:29:45.486Z,21.53
2016-08-14T04:30:45.463Z,21.53
2016-08-14T04:31:45.455Z,21.55
2016-08-14T04:32:45.432Z,21.56
2016-08-14T04:33:45.424Z,21.51
2016-08-14T04:34:45.400Z,21.61
2016-08-14T04:35:45.378Z,21.55
2016-08-14T04:36:45.369Z,21.53
2016-08-14T04:37:45.348Z,21.53
2016-08-14T04:38:45.330Z,21.51
2016-08-14T04:39:45.319Z,21.52
2016-08-14T04:40:45.299Z,21.56
2016-08-14T04:41:45.283Z,21.51
2016-08-14T04:42:45.273Z,21.55
2016-08-14T04:43:45.251Z,21.56
2016-08-14T04:44:44.529Z,21.56
2016-08-14T04:45:45.220Z,21.55
2016-08-14T04:46:45.202Z,21.52
2016-08-14T04:47:45.193Z,21.55
2016-08-14T04:48:45.171Z,21.52
2016-08-14T04:49:45.158Z,21.58
2016-08-14T04:50:45.139Z,21.49
2016-08-14T04:51:45.120Z,21.49
2016-08-14T04:52:45.106Z,21.55
2016-08-14T04:53:45.084Z,21.52
2016-08-14T04:54:45.074Z,21.55
2016-08-14T04:55:45.060Z,21.52
2016-08-14T04:56:45.046Z,21.52
2016-08-14T04:57:45.025Z,21.52
2016-08-14T04:58:45.024Z,21.49
2016-08-14T04:59:45.001Z,21.51
2016-08-14T05:00:44.979Z,21.49
2016-08-14T05:01:44.246Z,21.56
2016-08-14T05:02:44.232Z,21.56
2016-08-14T05:03:44.929Z,21.49
2016-08-14T05:04:44.909Z,21.55
2016-08-14T05:05:44.892Z,21.58
2016-08-14T05:06:44.875Z,21.55
2016-08-14T05:07:44.865Z,21.55
2016-08-14T05:08:44.839Z,21.52
2016-08-14T05:09:44.841Z,21.52
2016-08-14T05:10:44.810Z,21.48
2016-08-14T05:11:44.796Z,21.55
2016-08-14T05:12:44.782Z,21.49
2016-08-14T05:13:44.764Z,21.52
2016-08-14T05:14:44.743Z,21.55
2016-08-14T05:15:44.733Z,21.58
2016-08-14T05:16:44.713Z,21.53
2016-08-14T05:17:43.987Z,21.53
2016-08-14T05:18:44.685Z,21.55
2016-08-14T05:19:44.666Z,21.56
2016-08-14T05:20:44.654Z,21.59
2016-08-14T05:21:43.934Z,21.59
2016-08-14T05:22:43.908Z,21.53
2016-08-14T05:23:44.612Z,21.55
2016-08-14T05:24:44.589Z,21.56
2016-08-14T05:25:44.566Z,21.56
2016-08-14T05:26:43.138Z,21.52
2016-08-14T05:27:44.550Z,21.52
2016-08-14T05:28:44.522Z,21.56
2016-08-14T05:29:44.515Z,21.55
2016-08-14T05:30:43.776Z,21.53
2016-08-14T05:31:44.481Z,21.53
2016-08-14T05:32:44.466Z,21.52
2016-08-14T05:33:44.444Z,21.58
2016-08-14T05:34:44.426Z,21.53
2016-08-14T05:35:44.413Z,21.53
2016-08-14T05:36:44.395Z,21.59
2016-08-14T05:37:43.662Z,21.53
2016-08-14T05:38:44.353Z,21.59
2016-08-14T05:39:44.344Z,21.51
2016-08-14T05:40:44.329Z,21.56
2016-08-14T05:41:43.603Z,21.59
2016-08-14T05:42:44.293Z,21.58
2016-08-14T05:43:44.287Z,21.53
2016-08-14T05:44:44.290Z,21.56
2016-08-14T05:45:44.246Z,21.53
2016-08-14T05:46:44.227Z,21.56
2016-08-14T05:47:44.208Z,21.53
2016-08-14T05:48:44.198Z,21.55
2016-08-14T05:49:44.177Z,21.56
2016-08-14T05:50:44.184Z,21.56
2016-08-14T05:51:44.146Z,21.59
2016-08-14T05:52:44.133Z,21.53
2016-08-14T05:53:43.414Z,21.59
2016-08-14T05:54:44.097Z,21.55
2016-08-14T05:55:44.082Z,21.58
2016-08-14T05:56:43.350Z,21.51
2016-08-14T05:57:44.046Z,21.59
2016-08-14T05:58:43.326Z,21.55
2016-08-14T05:59:44.022Z,21.58
2016-08-14T06:00:44.006Z,21.63
2016-08-14T06:01:43.989Z,21.56
2016-08-14T06:02:43.971Z,21.59
2016-08-14T06:03:43.955Z,21.58
2016-08-14T06:04:43.931Z,21.58
2016-08-14T06:05:43.209Z,21.55
2016-08-14T06:06:43.197Z,21.63
2016-08-14T06:07:43.896Z,21.63
2016-08-14T06:08:43.874Z,21.56
2016-08-14T06:09:43.853Z,21.61
2016-08-14T06:10:43.842Z,21.55
2016-08-14T06:11:43.835Z,21.63
2016-08-14T06:12:43.090Z,21.51
2016-08-14T06:13:43.788Z,21.66
2016-08-14T06:14:43.772Z,21.52
2016-08-14T06:15:43.756Z,21.56
2016-08-14T06:16:43.751Z,21.63
2016-08-14T06:17:43.727Z,21.59
2016-08-14T06:18:43.706Z,21.63
2016-08-14T06:19:42.985Z,21.58
2016-08-14T06:20:43.682Z,21.56
2016-08-14T06:21:43.659Z,21.58
2016-08-14T06:22:43.640Z,21.61
2016-08-14T06:23:43.626Z,21.58
2016-08-14T06:24:43.614Z,21.59
2016-08-14T06:25:43.589Z,21.56
2016-08-14T06:26:43.581Z,21.61
2016-08-14T06:27:43.554Z,21.66
2016-08-14T06:28:43.551Z,21.55
2016-08-14T06:29:42.846Z,21.59
2016-08-14T06:30:43.525Z,21.73
2016-08-14T06:31:43.516Z,21.59
2016-08-14T06:32:43.480Z,21.58
2016-08-14T06:33:43.463Z,21.59
2016-08-14T06:34:43.451Z,21.59
2016-08-14T06:35:43.435Z,21.63
2016-08-14T06:36:43.408Z,21.59
2016-08-14T06:37:43.397Z,21.59
2016-08-14T06:38:43.403Z,21.63
2016-08-14T06:39:42.658Z,21.68
2016-08-14T06:40:43.347Z,21.56
2016-08-14T06:41:42.622Z,21.64
2016-08-14T06:42:43.317Z,21.66
2016-08-14T06:43:43.302Z,21.55
2016-08-14T06:44:43.309Z,21.67
2016-08-14T06:45:43.273Z,21.67
2016-08-14T06:46:43.255Z,21.68
2016-08-14T06:47:43.242Z,21.61
2016-08-14T06:48:43.222Z,21.61
2016-08-14T06:49:43.199Z,21.55
2016-08-14T06:50:43.194Z,21.63
2016-08-14T06:51:43.174Z,21.59
2016-08-14T06:52:42.444Z,21.59
2016-08-14T06:53:43.143Z,21.58
2016-08-14T06:54:43.133Z,21.53
2016-08-14T06:55:43.108Z,21.63
2016-08-14T06:56:43.098Z,21.52
2016-08-14T06:57:43.078Z,21.55
2016-08-14T06:58:43.059Z,21.55
2016-08-14T06:59:43.041Z,21.52
2016-08-14T07:00:43.036Z,21.55
2016-08-14T07:01:43.012Z,21.56
2016-08-14T07:02:42.284Z,21.52
2016-08-14T07:03:42.982Z,21.38
2016-08-14T07:04:42.973Z,21.55
2016-08-14T07:05:42.944Z,21.52
2016-08-14T07:06:42.925Z,21.52
2016-08-14T07:07:42.918Z,21.52
2016-08-14T07:08:42.901Z,21.49
2016-08-14T07:09:42.887Z,21.49
2016-08-14T07:10:42.154Z,21.55
2016-08-14T07:11:42.846Z,21.52
2016-08-14T07:12:42.840Z,21.45
2016-08-14T07:13:42.819Z,21.46
2016-08-14T07:14:42.094Z,21.53
2016-08-14T07:15:42.786Z,21.52
2016-08-14T07:16:42.768Z,21.43
2016-08-14T07:17:42.764Z,21.51
2016-08-14T07:18:42.022Z,21.49
2016-08-14T07:19:42.730Z,21.42
2016-08-14T07:20:42.709Z,21.48
2016-08-14T07:21:41.981Z,21.51
2016-08-14T07:22:41.972Z,21.52
2016-08-14T07:23:42.660Z,21.51
2016-08-14T07:24:42.636Z,21.45
2016-08-14T07:25:42.621Z,21.55
2016-08-14T07:26:42.603Z,21.53
2016-08-14T07:27:42.593Z,21.38
2016-08-14T07:28:42.574Z,21.42
2016-08-14T07:29:42.549Z,21.43
2016-08-14T07:30:42.541Z,21.38
2016-08-14T07:31:42.524Z,21.34
2016-08-14T07:32:42.504Z,21.34
2016-08-14T07:33:42.490Z,21.34
2016-08-14T07:34:41.775Z,21.33
2016-08-14T07:35:41.749Z,21.36
2016-08-14T07:36:42.449Z,21.3
2016-08-14T07:37:41.720Z,21.34
2016-08-14T07:38:42.421Z,21.36
2016-08-14T07:39:42.397Z,21.34
2016-08-14T07:40:42.381Z,21.4
2016-08-14T07:41:42.361Z,21.38
2016-08-14T07:42:42.347Z,21.46
2016-08-14T07:43:42.328Z,21.43
2016-08-14T07:44:42.315Z,21.38
2016-08-14T07:45:42.300Z,21.43
2016-08-14T07:46:42.276Z,21.31
2016-08-14T07:47:42.270Z,21.4
2016-08-14T07:48:42.245Z,21.4
2016-08-14T07:49:41.531Z,21.34
2016-08-14T07:50:42.219Z,21.28
2016-08-14T07:51:42.206Z,21.33
2016-08-14T07:52:42.179Z,21.36
2016-08-14T07:53:42.162Z,21.37
2016-08-14T07:54:42.143Z,21.3
2016-08-14T07:55:42.133Z,21.34
2016-08-14T07:56:42.116Z,21.3
2016-08-14T07:57:42.095Z,21.33
2016-08-14T07:58:41.381Z,21.27
2016-08-14T07:59:42.066Z,21.3
2016-08-14T08:00:42.043Z,21.36
2016-08-14T08:01:42.034Z,21.45
2016-08-14T08:02:42.020Z,21.27
2016-08-14T08:03:42.000Z,21.06
2016-08-14T08:04:41.984Z,21.05
2016-08-14T08:05:41.966Z,20.94
2016-08-14T08:06:41.236Z,21.01
2016-08-14T08:07:41.934Z,21.12
2016-08-14T08:08:41.922Z,21.12
2016-08-14T08:09:41.902Z,21.13
2016-08-14T08:10:41.884Z,21.27
2016-08-14T08:11:41.873Z,21.26
2016-08-14T08:12:41.849Z,21.27
2016-08-14T08:13:41.837Z,21.09
2016-08-14T08:14:41.119Z,21.05
2016-08-14T08:15:41.798Z,20.96
2016-08-14T08:16:41.786Z,20.81
2016-08-14T08:17:41.771Z,20.93
2016-08-14T08:18:41.759Z,20.85
2016-08-14T08:19:41.736Z,20.81
2016-08-14T08:20:41.008Z,20.82
2016-08-14T08:21:41.705Z,20.9
2016-08-14T08:22:41.688Z,21
2016-08-14T08:23:41.667Z,20.96
2016-08-14T08:24:41.643Z,21
2016-08-14T08:25:41.636Z,21.19
2016-08-14T08:26:41.633Z,21.15
2016-08-14T08:27:41.603Z,21.18
2016-08-14T08:28:41.586Z,21.21
2016-08-14T08:29:41.573Z,21.3
2016-08-14T08:30:41.552Z,21.19
2016-08-14T08:31:41.539Z,21.24
2016-08-14T08:32:41.519Z,21.18
2016-08-14T08:33:41.495Z,20.96
2016-08-14T08:34:41.489Z,20.81
2016-08-14T08:35:41.471Z,20.88
2016-08-14T08:36:41.451Z,20.87
2016-08-14T08:37:41.431Z,20.76
2016-08-14T08:38:41.426Z,20.83
2016-08-14T08:39:40.700Z,20.9
2016-08-14T08:40:41.395Z,20.83
2016-08-14T08:41:41.368Z,20.78
2016-08-14T08:42:41.348Z,20.79
2016-08-14T08:43:41.335Z,20.87
2016-08-14T08:44:41.320Z,20.79
2016-08-14T08:45:41.307Z,20.83
2016-08-14T08:46:41.286Z,20.82
2016-08-14T08:47:41.272Z,20.79
2016-08-14T08:48:41.267Z,20.76
2016-08-14T08:49:41.247Z,20.75
2016-08-14T08:50:41.220Z,20.87
2016-08-14T08:51:41.205Z,20.87
2016-08-14T08:52:41.212Z,21.01
2016-08-14T08:53:41.164Z,21.13
2016-08-14T08:54:41.156Z,21.12
2016-08-14T08:55:41.138Z,21.15
2016-08-14T08:56:41.126Z,21.19
2016-08-14T08:57:41.107Z,21.18
2016-08-14T08:58:39.677Z,21.12
2016-08-14T08:59:41.077Z,21.12
2016-08-14T09:00:41.073Z,20.98
2016-08-14T09:01:41.054Z,20.96
2016-08-14T09:02:41.020Z,20.97
2016-08-14T09:03:40.300Z,20.98
2016-08-14T09:04:39.572Z,20.98
2016-08-14T09:05:40.284Z,20.96
2016-08-14T09:06:40.260Z,21.05
2016-08-14T09:07:40.234Z,21.13
2016-08-14T09:08:40.928Z,21.24
2016-08-14T09:09:40.913Z,21.06
2016-08-14T09:10:40.898Z,20.96
2016-08-14T09:11:40.878Z,20.93
2016-08-14T09:12:40.855Z,21.05
2016-08-14T09:13:40.841Z,20.96
2016-08-14T09:14:40.116Z,20.9
2016-08-14T09:15:40.807Z,21
2016-08-14T09:16:40.789Z,21
2016-08-14T09:17:40.062Z,20.97
2016-08-14T09:18:40.755Z,20.98
2016-08-14T09:19:40.740Z,20.9
2016-08-14T09:20:40.723Z,20.83
2016-08-14T09:21:40.718Z,20.88
2016-08-14T09:22:40.690Z,20.9
2016-08-14T09:23:40.675Z,21
2016-08-14T09:24:39.946Z,20.9
2016-08-14T09:25:40.641Z,21.01
2016-08-14T09:26:40.625Z,21.05
2016-08-14T09:27:40.599Z,21
2016-08-14T09:28:39.881Z,20.98
2016-08-14T09:29:40.570Z,20.98
2016-08-14T09:30:40.556Z,21
2016-08-14T09:31:40.541Z,20.98
2016-08-14T09:32:40.520Z,21.05
2016-08-14T09:33:40.509Z,20.97
2016-08-14T09:34:40.489Z,20.88
2016-08-14T09:35:39.758Z,20.94
2016-08-14T09:36:39.749Z,20.93
2016-08-14T09:37:40.448Z,20.85
2016-08-14T09:38:40.412Z,21.01
2016-08-14T09:39:40.432Z,21.11
2016-08-14T09:40:39.683Z,21.18
2016-08-14T09:41:39.679Z,21.21
2016-08-14T09:42:40.354Z,21.28
2016-08-14T09:43:40.340Z,21.33
2016-08-14T09:44:40.339Z,21.33
2016-08-14T09:45:40.322Z,21.33
2016-08-14T09:46:40.296Z,21.26
2016-08-14T09:47:38.871Z,21.26
2016-08-14T09:48:40.259Z,21.28
2016-08-14T09:49:40.239Z,21.31
2016-08-14T09:50:40.224Z,21.33
2016-08-14T09:51:40.219Z,21.4
2016-08-14T09:52:39.502Z,21.36
2016-08-14T09:53:40.175Z,21.4
2016-08-14T09:54:38.757Z,21.31
2016-08-14T09:55:38.731Z,21.31
2016-08-14T09:56:40.133Z,21.24
2016-08-14T09:57:40.110Z,21.27
2016-08-14T09:58:39.378Z,21.22
2016-08-14T09:59:40.080Z,21.22
2016-08-14T10:00:40.056Z,21.24
2016-08-14T10:01:40.047Z,21.19
2016-08-14T10:02:38.621Z,21.36
2016-08-14T10:03:38.612Z,21.36
2016-08-14T10:04:39.283Z,21.4
2016-08-14T10:05:39.266Z,21.37
2016-08-14T10:06:39.968Z,21.36
2016-08-14T10:07:39.944Z,21.28
2016-08-14T10:08:39.931Z,21.27
2016-08-14T10:09:39.919Z,21.28
2016-08-14T10:10:39.194Z,21.22
2016-08-14T10:11:40.020Z,21.26
2016-08-14T10:12:38.449Z,21.12
2016-08-14T10:13:39.843Z,21.13
2016-08-14T10:14:39.831Z,21.09
2016-08-14T10:15:39.814Z,21.15
2016-08-14T10:16:39.788Z,21.21
2016-08-14T10:17:39.780Z,21.15
2016-08-14T10:18:38.375Z,21.24
2016-08-14T10:19:39.736Z,21.28
2016-08-14T10:20:39.033Z,21.31
2016-08-14T10:21:39.720Z,21.26
2016-08-14T10:22:39.690Z,21.26
2016-08-14T10:23:38.972Z,21.22
2016-08-14T10:24:39.663Z,21.3
2016-08-14T10:25:39.672Z,21.28
2016-08-14T10:26:39.632Z,21.33
2016-08-14T10:27:38.896Z,21.4
2016-08-14T10:28:39.593Z,21.38
2016-08-14T10:29:39.584Z,21.42
2016-08-14T10:30:39.561Z,21.52
2016-08-14T10:31:39.538Z,21.43
2016-08-14T10:32:39.529Z,21.43
2016-08-14T10:33:39.510Z,21.38
2016-08-14T10:34:39.504Z,21.37
2016-08-14T10:35:39.480Z,21.42
2016-08-14T10:36:38.751Z,21.36
2016-08-14T10:37:38.745Z,21.48
2016-08-14T10:38:39.425Z,21.38
2016-08-14T10:39:39.414Z,21.36
2016-08-14T10:40:38.697Z,21.4
2016-08-14T10:41:39.376Z,21.46
2016-08-14T10:42:39.368Z,21.45
2016-08-14T10:43:39.343Z,21.46
2016-08-14T10:44:38.618Z,21.59
2016-08-14T10:45:39.315Z,21.51
2016-08-14T10:46:39.318Z,21.51
2016-08-14T10:47:39.276Z,21.55
2016-08-14T10:48:39.272Z,21.42
2016-08-14T10:49:39.248Z,21.45
2016-08-14T10:50:38.523Z,21.38
2016-08-14T10:51:39.230Z,21.37
2016-08-14T10:52:39.200Z,21.45
2016-08-14T10:53:38.479Z,21.53
2016-08-14T10:54:39.160Z,21.52
2016-08-14T10:55:39.156Z,21.55
2016-08-14T10:56:39.129Z,21.52
2016-08-14T10:57:37.698Z,21.42
2016-08-14T10:58:38.379Z,21.46
2016-08-14T10:59:38.388Z,21.45
2016-08-14T11:00:39.063Z,21.38
2016-08-14T11:01:39.049Z,21.42
2016-08-14T11:02:38.342Z,21.48
2016-08-14T11:03:38.313Z,21.48
2016-08-14T11:04:38.997Z,21.58
2016-08-14T11:05:38.266Z,21.56
2016-08-14T11:06:38.967Z,21.61
2016-08-14T11:07:38.943Z,21.58
2016-08-14T11:08:38.937Z,21.51
2016-08-14T11:09:38.927Z,21.66
2016-08-14T11:10:38.198Z,21.55
2016-08-14T11:11:38.879Z,21.59
2016-08-14T11:12:38.877Z,21.55
2016-08-14T11:13:38.850Z,21.55
2016-08-14T11:14:38.841Z,21.53
2016-08-14T11:15:37.398Z,21.63
2016-08-14T11:16:38.803Z,21.58
2016-08-14T11:17:38.779Z,21.51
2016-08-14T11:18:38.773Z,21.55
2016-08-14T11:19:38.746Z,21.4
2016-08-14T11:20:38.026Z,21.42
2016-08-14T11:21:38.715Z,21.4
2016-08-14T11:22:38.700Z,21.46
2016-08-14T11:23:38.694Z,21.4
2016-08-14T11:24:38.678Z,21.36
2016-08-14T11:25:37.258Z,21.38
2016-08-14T11:26:38.651Z,21.49
2016-08-14T11:27:38.623Z,21.49
2016-08-14T11:28:37.895Z,21.45
2016-08-14T11:29:38.580Z,21.53
2016-08-14T11:30:38.561Z,21.52
2016-08-14T11:31:38.562Z,21.46
2016-08-14T11:32:38.532Z,21.51
2016-08-14T11:33:38.524Z,21.53
2016-08-14T11:34:38.505Z,21.53
2016-08-14T11:35:38.488Z,21.46
2016-08-14T11:36:37.764Z,21.48
2016-08-14T11:37:37.768Z,21.49
2016-08-14T11:38:38.450Z,21.52
2016-08-14T11:39:38.441Z,21.56
2016-08-14T11:40:38.404Z,21.46
2016-08-14T11:41:38.389Z,21.48
2016-08-14T11:42:38.368Z,21.46
2016-08-14T11:43:37.637Z,21.48
2016-08-14T11:44:38.338Z,21.55
2016-08-14T11:45:38.328Z,21.53
2016-08-14T11:46:37.597Z,21.49
2016-08-14T11:47:38.299Z,21.53
2016-08-14T11:48:38.271Z,21.55
2016-08-14T11:49:38.262Z,21.52
2016-08-14T11:50:37.536Z,21.49
2016-08-14T11:51:36.803Z,21.52
2016-08-14T11:52:38.214Z,21.53
2016-08-14T11:53:38.195Z,21.63
2016-08-14T11:54:38.179Z,21.56
2016-08-14T11:55:38.169Z,21.56
2016-08-14T11:56:38.155Z,21.63
2016-08-14T11:57:36.703Z,21.67
2016-08-14T11:58:38.105Z,21.59
2016-08-14T11:59:36.691Z,21.64
2016-08-14T12:00:38.079Z,21.59
2016-08-14T12:01:38.065Z,21.61
2016-08-14T12:02:38.048Z,21.63
2016-08-14T12:03:37.316Z,21.7
2016-08-14T12:04:38.011Z,21.64
2016-08-14T12:05:38.003Z,21.7
2016-08-14T12:06:37.269Z,21.73
2016-08-14T12:07:37.969Z,21.66
2016-08-14T12:08:37.246Z,21.7
2016-08-14T12:09:37.214Z,21.61
2016-08-14T12:10:37.204Z,21.71
2016-08-14T12:11:37.903Z,21.68
2016-08-14T12:12:37.174Z,21.68
2016-08-14T12:13:37.153Z,21.7
2016-08-14T12:14:37.140Z,21.66
2016-08-14T12:15:37.825Z,21.61
2016-08-14T12:16:37.815Z,21.68
2016-08-14T12:17:38.081Z,21.66
2016-08-14T12:18:37.785Z,21.63
2016-08-14T12:19:37.757Z,21.61
2016-08-14T12:20:37.036Z,21.58
2016-08-14T12:21:37.736Z,21.68
2016-08-14T12:22:37.714Z,21.68
2016-08-14T12:23:37.699Z,21.63
2016-08-14T12:24:37.674Z,21.67
2016-08-14T12:25:37.676Z,21.71
2016-08-14T12:26:37.643Z,21.75
2016-08-14T12:27:37.627Z,21.75
2016-08-14T12:28:37.618Z,21.77
2016-08-14T12:29:37.602Z,21.75
2016-08-14T12:30:37.590Z,21.7
2016-08-14T12:31:37.569Z,21.71
2016-08-14T12:32:37.548Z,21.79
2016-08-14T12:33:36.826Z,21.66
2016-08-14T12:34:36.815Z,21.67
2016-08-14T12:35:36.797Z,21.68
2016-08-14T12:36:36.780Z,21.67
2016-08-14T12:37:37.467Z,21.75
2016-08-14T12:38:36.739Z,21.71
2016-08-14T12:39:37.438Z,21.7
2016-08-14T12:40:37.417Z,21.73
2016-08-14T12:41:37.398Z,21.75
2016-08-14T12:42:37.388Z,21.79
2016-08-14T12:43:37.371Z,21.79
2016-08-14T12:44:35.945Z,21.81
2016-08-14T12:45:37.336Z,21.82
2016-08-14T12:46:37.316Z,21.82
2016-08-14T12:47:37.305Z,21.98
2016-08-14T12:48:37.285Z,21.93
2016-08-14T12:49:36.569Z,21.83
2016-08-14T12:50:36.557Z,21.9
2016-08-14T12:51:36.537Z,21.9
2016-08-14T12:52:37.219Z,21.82
2016-08-14T12:53:36.502Z,21.83
2016-08-14T12:54:36.485Z,21.9
2016-08-14T12:55:37.189Z,21.93